sensor_id;sensor_type;location;lat;lon;timestamp;P1;durP1;ratioP1;P2;durP2;ratioP2
11665;SDS011;5889;51.350;6.708;2024-01-15T00:02:22;52.70;;;22.07;;
11665;SDS011;5889;51.350;6.708;2024-01-15T00:04:51;57.97;;;23.50;;
11665;SDS011;5889;51.350;6.708;2024-01-15T00:07:19;59.10;;;25.20;;
11665;SDS011;5889;51.350;6.708;2024-01-15T00:09:50;60.63;;;26.07;;
11665;SDS011;5889;51.350;6.708;2024-01-15T00:12:17;47.80;;;24.07;;
11665;SDS011;5889;51.350;6.708;2024-01-15T00:14:47;53.73;;;23.97;;
11665;SDS011;5889;51.350;6.708;2024-01-15T00:17:15;58.40;;;24.97;;
11665;SDS011;5889;51.350;6.708;2024-01-15T00:19:43;50.90;;;22.67;;
11665;SDS011;5889;51.350;6.708;2024-01-15T00:22:14;62.30;;;23.30;;
11665;SDS011;5889;51.350;6.708;2024-01-15T00:24:43;63.73;;;24.77;;
11665;SDS011;5889;51.350;6.708;2024-01-15T00:27:19;56.10;;;23.80;;
11665;SDS011;5889;51.350;6.708;2024-01-15T00:29:51;53.87;;;23.07;;
11665;SDS011;5889;51.350;6.708;2024-01-15T00:32:22;51.17;;;23.33;;
11665;SDS011;5889;51.350;6.708;2024-01-15T00:34:53;52.83;;;23.67;;
11665;SDS011;5889;51.350;6.708;2024-01-15T00:37:21;54.33;;;22.57;;
11665;SDS011;5889;51.350;6.708;2024-01-15T00:39:49;53.13;;;25.23;;
11665;SDS011;5889;51.350;6.708;2024-01-15T00:42:26;50.63;;;22.50;;
11665;SDS011;5889;51.350;6.708;2024-01-15T00:44:56;50.87;;;24.07;;
11665;SDS011;5889;51.350;6.708;2024-01-15T00:47:24;52.83;;;23.17;;
11665;SDS011;5889;51.350;6.708;2024-01-15T00:49:53;50.27;;;23.53;;
11665;SDS011;5889;51.350;6.708;2024-01-15T00:52:23;53.47;;;22.73;;
11665;SDS011;5889;51.350;6.708;2024-01-15T00:54:51;46.93;;;21.77;;
11665;SDS011;5889;51.350;6.708;2024-01-15T00:57:37;58.87;;;25.87;;
11665;SDS011;5889;51.350;6.708;2024-01-15T01:00:09;57.07;;;23.40;;
11665;SDS011;5889;51.350;6.708;2024-01-15T01:02:37;53.47;;;23.50;;
11665;SDS011;5889;51.350;6.708;2024-01-15T01:05:07;52.63;;;24.17;;
11665;SDS011;5889;51.350;6.708;2024-01-15T01:07:35;54.17;;;23.80;;
11665;SDS011;5889;51.350;6.708;2024-01-15T01:10:03;50.67;;;23.87;;
11665;SDS011;5889;51.350;6.708;2024-01-15T01:12:32;57.33;;;26.37;;
11665;SDS011;5889;51.350;6.708;2024-01-15T01:14:59;52.93;;;24.77;;
11665;SDS011;5889;51.350;6.708;2024-01-15T01:17:32;55.47;;;24.80;;
11665;SDS011;5889;51.350;6.708;2024-01-15T01:20:00;58.20;;;24.33;;
11665;SDS011;5889;51.350;6.708;2024-01-15T01:22:29;52.77;;;23.23;;
11665;SDS011;5889;51.350;6.708;2024-01-15T01:24:57;55.60;;;26.73;;
11665;SDS011;5889;51.350;6.708;2024-01-15T01:27:25;56.93;;;24.23;;
11665;SDS011;5889;51.350;6.708;2024-01-15T01:29:55;45.73;;;22.33;;
11665;SDS011;5889;51.350;6.708;2024-01-15T01:32:26;46.17;;;22.67;;
11665;SDS011;5889;51.350;6.708;2024-01-15T01:34:55;53.77;;;23.83;;
11665;SDS011;5889;51.350;6.708;2024-01-15T01:37:28;56.17;;;24.23;;
11665;SDS011;5889;51.350;6.708;2024-01-15T01:40:00;55.20;;;23.90;;
11665;SDS011;5889;51.350;6.708;2024-01-15T01:42:31;52.03;;;23.50;;
11665;SDS011;5889;51.350;6.708;2024-01-15T01:44:59;54.17;;;24.27;;
11665;SDS011;5889;51.350;6.708;2024-01-15T01:47:27;49.37;;;22.40;;
11665;SDS011;5889;51.350;6.708;2024-01-15T01:49:59;48.97;;;22.40;;
11665;SDS011;5889;51.350;6.708;2024-01-15T01:52:29;51.40;;;22.77;;
11665;SDS011;5889;51.350;6.708;2024-01-15T01:55:01;45.37;;;21.37;;
11665;SDS011;5889;51.350;6.708;2024-01-15T01:57:30;44.60;;;23.00;;
11665;SDS011;5889;51.350;6.708;2024-01-15T02:00:00;49.80;;;21.33;;
11665;SDS011;5889;51.350;6.708;2024-01-15T02:02:29;45.07;;;20.73;;
11665;SDS011;5889;51.350;6.708;2024-01-15T02:05:00;42.43;;;18.90;;
11665;SDS011;5889;51.350;6.708;2024-01-15T02:07:30;52.40;;;21.53;;
11665;SDS011;5889;51.350;6.708;2024-01-15T02:09:58;50.60;;;20.40;;
11665;SDS011;5889;51.350;6.708;2024-01-15T02:12:26;42.43;;;20.67;;
11665;SDS011;5889;51.350;6.708;2024-01-15T02:14:57;44.27;;;21.60;;
11665;SDS011;5889;51.350;6.708;2024-01-15T02:17:28;40.00;;;19.43;;
11665;SDS011;5889;51.350;6.708;2024-01-15T02:19:57;42.97;;;19.90;;
11665;SDS011;5889;51.350;6.708;2024-01-15T02:22:30;42.50;;;19.50;;
11665;SDS011;5889;51.350;6.708;2024-01-15T02:24:59;43.53;;;20.27;;
11665;SDS011;5889;51.350;6.708;2024-01-15T02:27:28;39.10;;;18.20;;
11665;SDS011;5889;51.350;6.708;2024-01-15T02:29:56;40.07;;;19.10;;
11665;SDS011;5889;51.350;6.708;2024-01-15T02:32:24;32.47;;;15.90;;
11665;SDS011;5889;51.350;6.708;2024-01-15T02:34:55;39.43;;;15.47;;
11665;SDS011;5889;51.350;6.708;2024-01-15T02:37:26;39.10;;;16.93;;
11665;SDS011;5889;51.350;6.708;2024-01-15T02:39:56;33.13;;;16.37;;
11665;SDS011;5889;51.350;6.708;2024-01-15T02:42:25;37.77;;;17.67;;
11665;SDS011;5889;51.350;6.708;2024-01-15T02:44:54;39.10;;;17.40;;
11665;SDS011;5889;51.350;6.708;2024-01-15T02:47:22;32.30;;;15.87;;
11665;SDS011;5889;51.350;6.708;2024-01-15T02:49:50;29.53;;;14.43;;
11665;SDS011;5889;51.350;6.708;2024-01-15T02:52:18;34.80;;;16.70;;
11665;SDS011;5889;51.350;6.708;2024-01-15T02:54:46;34.80;;;16.23;;
11665;SDS011;5889;51.350;6.708;2024-01-15T02:57:14;35.23;;;15.67;;
11665;SDS011;5889;51.350;6.708;2024-01-15T02:59:48;31.23;;;16.50;;
11665;SDS011;5889;51.350;6.708;2024-01-15T03:02:18;34.17;;;15.70;;
11665;SDS011;5889;51.350;6.708;2024-01-15T03:04:48;35.50;;;16.70;;
11665;SDS011;5889;51.350;6.708;2024-01-15T03:07:16;31.77;;;15.60;;
11665;SDS011;5889;51.350;6.708;2024-01-15T03:09:45;30.97;;;16.33;;
11665;SDS011;5889;51.350;6.708;2024-01-15T03:12:13;33.47;;;17.10;;
11665;SDS011;5889;51.350;6.708;2024-01-15T03:14:43;34.63;;;17.20;;
11665;SDS011;5889;51.350;6.708;2024-01-15T03:17:13;34.13;;;16.97;;
11665;SDS011;5889;51.350;6.708;2024-01-15T03:19:41;34.33;;;17.20;;
11665;SDS011;5889;51.350;6.708;2024-01-15T03:22:09;34.53;;;19.63;;
11665;SDS011;5889;51.350;6.708;2024-01-15T03:24:38;35.00;;;16.93;;
11665;SDS011;5889;51.350;6.708;2024-01-15T03:27:07;38.60;;;17.67;;
11665;SDS011;5889;51.350;6.708;2024-01-15T03:29:37;37.57;;;18.00;;
11665;SDS011;5889;51.350;6.708;2024-01-15T03:32:07;43.40;;;17.77;;
11665;SDS011;5889;51.350;6.708;2024-01-15T03:34:37;32.77;;;16.60;;
11665;SDS011;5889;51.350;6.708;2024-01-15T03:37:08;32.67;;;16.67;;
11665;SDS011;5889;51.350;6.708;2024-01-15T03:39:36;42.17;;;18.33;;
11665;SDS011;5889;51.350;6.708;2024-01-15T03:42:05;32.57;;;16.23;;
11665;SDS011;5889;51.350;6.708;2024-01-15T03:44:33;30.47;;;16.10;;
11665;SDS011;5889;51.350;6.708;2024-01-15T03:47:01;29.97;;;16.20;;
11665;SDS011;5889;51.350;6.708;2024-01-15T03:49:31;34.73;;;16.90;;
11665;SDS011;5889;51.350;6.708;2024-01-15T03:52:02;32.50;;;15.77;;
11665;SDS011;5889;51.350;6.708;2024-01-15T03:54:30;30.37;;;15.47;;
11665;SDS011;5889;51.350;6.708;2024-01-15T03:57:00;36.53;;;16.17;;
11665;SDS011;5889;51.350;6.708;2024-01-15T03:59:28;37.60;;;16.70;;
11665;SDS011;5889;51.350;6.708;2024-01-15T04:01:57;32.10;;;17.23;;
11665;SDS011;5889;51.350;6.708;2024-01-15T04:04:26;36.50;;;16.07;;
11665;SDS011;5889;51.350;6.708;2024-01-15T04:06:56;33.90;;;15.87;;
11665;SDS011;5889;51.350;6.708;2024-01-15T04:09:28;30.13;;;15.33;;
11665;SDS011;5889;51.350;6.708;2024-01-15T04:12:05;27.10;;;16.23;;
11665;SDS011;5889;51.350;6.708;2024-01-15T04:14:42;24.83;;;14.53;;
11665;SDS011;5889;51.350;6.708;2024-01-15T04:17:28;29.30;;;15.87;;
11665;SDS011;5889;51.350;6.708;2024-01-15T04:22:51;28.03;;;15.40;;
11665;SDS011;5889;51.350;6.708;2024-01-15T04:25:19;28.97;;;15.53;;
11665;SDS011;5889;51.350;6.708;2024-01-15T04:27:47;25.40;;;14.23;;
11665;SDS011;5889;51.350;6.708;2024-01-15T04:30:21;28.03;;;14.33;;
11665;SDS011;5889;51.350;6.708;2024-01-15T04:33:05;31.27;;;14.73;;
11665;SDS011;5889;51.350;6.708;2024-01-15T04:35:36;27.97;;;14.47;;
11665;SDS011;5889;51.350;6.708;2024-01-15T04:38:05;34.87;;;15.93;;
11665;SDS011;5889;51.350;6.708;2024-01-15T04:40:38;31.23;;;15.13;;
11665;SDS011;5889;51.350;6.708;2024-01-15T04:43:06;30.60;;;15.53;;
11665;SDS011;5889;51.350;6.708;2024-01-15T04:45:38;30.37;;;14.57;;
11665;SDS011;5889;51.350;6.708;2024-01-15T04:48:06;22.83;;;13.63;;
11665;SDS011;5889;51.350;6.708;2024-01-15T04:50:35;30.80;;;14.53;;
11665;SDS011;5889;51.350;6.708;2024-01-15T04:53:05;29.27;;;12.87;;
11665;SDS011;5889;51.350;6.708;2024-01-15T04:55:34;25.87;;;12.60;;
11665;SDS011;5889;51.350;6.708;2024-01-15T04:58:02;24.20;;;12.93;;
11665;SDS011;5889;51.350;6.708;2024-01-15T05:00:34;25.00;;;13.57;;
11665;SDS011;5889;51.350;6.708;2024-01-15T05:03:02;28.17;;;13.50;;
11665;SDS011;5889;51.350;6.708;2024-01-15T05:05:33;23.50;;;12.67;;
11665;SDS011;5889;51.350;6.708;2024-01-15T05:08:02;29.17;;;14.03;;
11665;SDS011;5889;51.350;6.708;2024-01-15T05:10:31;31.27;;;13.57;;
11665;SDS011;5889;51.350;6.708;2024-01-15T05:12:59;22.57;;;12.53;;
11665;SDS011;5889;51.350;6.708;2024-01-15T05:15:34;24.87;;;13.03;;
11665;SDS011;5889;51.350;6.708;2024-01-15T05:18:03;30.77;;;13.97;;
11665;SDS011;5889;51.350;6.708;2024-01-15T05:20:32;24.67;;;13.77;;
11665;SDS011;5889;51.350;6.708;2024-01-15T05:23:00;22.70;;;12.90;;
11665;SDS011;5889;51.350;6.708;2024-01-15T05:25:28;21.30;;;12.37;;
11665;SDS011;5889;51.350;6.708;2024-01-15T05:28:00;26.43;;;12.33;;
11665;SDS011;5889;51.350;6.708;2024-01-15T05:30:28;27.83;;;13.63;;
11665;SDS011;5889;51.350;6.708;2024-01-15T05:32:56;23.00;;;13.37;;
11665;SDS011;5889;51.350;6.708;2024-01-15T05:35:25;27.90;;;12.50;;
11665;SDS011;5889;51.350;6.708;2024-01-15T05:37:55;26.53;;;12.37;;
11665;SDS011;5889;51.350;6.708;2024-01-15T05:40:24;27.83;;;13.17;;
11665;SDS011;5889;51.350;6.708;2024-01-15T05:42:52;20.63;;;11.20;;
11665;SDS011;5889;51.350;6.708;2024-01-15T05:45:27;26.70;;;12.40;;
11665;SDS011;5889;51.350;6.708;2024-01-15T05:47:57;29.47;;;14.33;;
11665;SDS011;5889;51.350;6.708;2024-01-15T05:50:28;22.87;;;11.90;;
11665;SDS011;5889;51.350;6.708;2024-01-15T05:52:59;21.60;;;11.80;;
11665;SDS011;5889;51.350;6.708;2024-01-15T05:55:29;22.27;;;13.67;;
11665;SDS011;5889;51.350;6.708;2024-01-15T05:57:57;22.57;;;11.40;;
11665;SDS011;5889;51.350;6.708;2024-01-15T06:00:27;22.37;;;10.80;;
11665;SDS011;5889;51.350;6.708;2024-01-15T06:02:56;22.40;;;10.70;;
11665;SDS011;5889;51.350;6.708;2024-01-15T06:05:24;19.33;;;10.37;;
11665;SDS011;5889;51.350;6.708;2024-01-15T06:07:55;18.83;;;10.43;;
11665;SDS011;5889;51.350;6.708;2024-01-15T06:10:28;21.33;;;11.10;;
11665;SDS011;5889;51.350;6.708;2024-01-15T06:12:56;18.70;;;10.23;;
11665;SDS011;5889;51.350;6.708;2024-01-15T06:15:29;18.47;;;11.07;;
11665;SDS011;5889;51.350;6.708;2024-01-15T06:17:57;16.50;;;10.10;;
11665;SDS011;5889;51.350;6.708;2024-01-15T06:20:25;17.13;;;9.53;;
11665;SDS011;5889;51.350;6.708;2024-01-15T06:22:53;15.80;;;9.63;;
11665;SDS011;5889;51.350;6.708;2024-01-15T06:25:21;15.60;;;8.63;;
11665;SDS011;5889;51.350;6.708;2024-01-15T06:27:50;16.30;;;9.77;;
11665;SDS011;5889;51.350;6.708;2024-01-15T06:30:18;14.83;;;8.57;;
11665;SDS011;5889;51.350;6.708;2024-01-15T06:32:48;17.00;;;9.30;;
11665;SDS011;5889;51.350;6.708;2024-01-15T06:35:16;15.37;;;9.53;;
11665;SDS011;5889;51.350;6.708;2024-01-15T06:37:44;15.27;;;9.37;;
11665;SDS011;5889;51.350;6.708;2024-01-15T06:40:12;16.03;;;9.60;;
11665;SDS011;5889;51.350;6.708;2024-01-15T06:42:43;19.47;;;8.80;;
11665;SDS011;5889;51.350;6.708;2024-01-15T06:45:10;13.63;;;8.13;;
11665;SDS011;5889;51.350;6.708;2024-01-15T06:47:37;12.90;;;6.77;;
11665;SDS011;5889;51.350;6.708;2024-01-15T06:50:06;9.87;;;6.90;;
11665;SDS011;5889;51.350;6.708;2024-01-15T06:52:33;12.03;;;6.00;;
11665;SDS011;5889;51.350;6.708;2024-01-15T06:55:00;8.80;;;5.40;;
11665;SDS011;5889;51.350;6.708;2024-01-15T06:57:27;7.10;;;5.00;;
11665;SDS011;5889;51.350;6.708;2024-01-15T06:59:54;7.87;;;5.27;;
11665;SDS011;5889;51.350;6.708;2024-01-15T07:02:21;8.30;;;4.77;;
11665;SDS011;5889;51.350;6.708;2024-01-15T07:04:48;10.00;;;5.60;;
11665;SDS011;5889;51.350;6.708;2024-01-15T07:07:16;8.80;;;5.23;;
11665;SDS011;5889;51.350;6.708;2024-01-15T07:09:44;8.57;;;5.90;;
11665;SDS011;5889;51.350;6.708;2024-01-15T07:12:11;16.37;;;6.90;;
11665;SDS011;5889;51.350;6.708;2024-01-15T07:14:38;13.07;;;7.90;;
11665;SDS011;5889;51.350;6.708;2024-01-15T07:17:05;13.83;;;9.10;;
11665;SDS011;5889;51.350;6.708;2024-01-15T07:19:31;19.30;;;9.47;;
11665;SDS011;5889;51.350;6.708;2024-01-15T07:21:58;20.07;;;11.03;;
11665;SDS011;5889;51.350;6.708;2024-01-15T07:24:27;19.87;;;11.40;;
11665;SDS011;5889;51.350;6.708;2024-01-15T07:26:54;25.43;;;13.63;;
11665;SDS011;5889;51.350;6.708;2024-01-15T07:29:20;23.83;;;13.57;;
11665;SDS011;5889;51.350;6.708;2024-01-15T07:31:48;26.93;;;13.63;;
11665;SDS011;5889;51.350;6.708;2024-01-15T07:34:16;30.13;;;13.60;;
11665;SDS011;5889;51.350;6.708;2024-01-15T07:36:43;22.03;;;13.80;;
11665;SDS011;5889;51.350;6.708;2024-01-15T07:39:10;27.27;;;13.97;;
11665;SDS011;5889;51.350;6.708;2024-01-15T07:41:38;24.83;;;14.57;;
11665;SDS011;5889;51.350;6.708;2024-01-15T07:44:05;26.07;;;14.67;;
11665;SDS011;5889;51.350;6.708;2024-01-15T07:46:33;21.90;;;13.50;;
11665;SDS011;5889;51.350;6.708;2024-01-15T07:48:59;23.83;;;12.87;;
11665;SDS011;5889;51.350;6.708;2024-01-15T07:51:26;23.27;;;13.63;;
11665;SDS011;5889;51.350;6.708;2024-01-15T07:53:54;23.13;;;13.90;;
11665;SDS011;5889;51.350;6.708;2024-01-15T07:56:21;20.73;;;12.67;;
11665;SDS011;5889;51.350;6.708;2024-01-15T07:58:49;21.40;;;12.90;;
11665;SDS011;5889;51.350;6.708;2024-01-15T08:01:16;20.50;;;12.20;;
11665;SDS011;5889;51.350;6.708;2024-01-15T08:03:43;20.17;;;13.00;;
11665;SDS011;5889;51.350;6.708;2024-01-15T08:06:10;20.63;;;12.20;;
11665;SDS011;5889;51.350;6.708;2024-01-15T08:08:37;24.10;;;12.83;;
11665;SDS011;5889;51.350;6.708;2024-01-15T08:11:04;16.80;;;11.33;;
11665;SDS011;5889;51.350;6.708;2024-01-15T08:13:31;22.03;;;12.10;;
11665;SDS011;5889;51.350;6.708;2024-01-15T08:16:02;19.50;;;11.27;;
11665;SDS011;5889;51.350;6.708;2024-01-15T08:18:30;18.53;;;11.70;;
11665;SDS011;5889;51.350;6.708;2024-01-15T08:20:57;17.67;;;11.73;;
11665;SDS011;5889;51.350;6.708;2024-01-15T08:23:24;16.13;;;11.00;;
11665;SDS011;5889;51.350;6.708;2024-01-15T08:25:56;17.73;;;11.43;;
11665;SDS011;5889;51.350;6.708;2024-01-15T08:28:23;16.13;;;10.03;;
11665;SDS011;5889;51.350;6.708;2024-01-15T08:30:50;16.13;;;10.00;;
11665;SDS011;5889;51.350;6.708;2024-01-15T08:33:18;18.37;;;10.80;;
11665;SDS011;5889;51.350;6.708;2024-01-15T08:35:45;17.43;;;10.83;;
11665;SDS011;5889;51.350;6.708;2024-01-15T08:38:12;15.20;;;10.37;;
11665;SDS011;5889;51.350;6.708;2024-01-15T08:40:39;18.93;;;11.53;;
11665;SDS011;5889;51.350;6.708;2024-01-15T08:43:06;17.13;;;10.13;;
11665;SDS011;5889;51.350;6.708;2024-01-15T08:45:33;16.97;;;10.63;;
11665;SDS011;5889;51.350;6.708;2024-01-15T08:48:00;17.17;;;9.83;;
11665;SDS011;5889;51.350;6.708;2024-01-15T08:50:28;16.27;;;10.57;;
11665;SDS011;5889;51.350;6.708;2024-01-15T08:52:57;18.03;;;11.30;;
11665;SDS011;5889;51.350;6.708;2024-01-15T08:55:24;16.97;;;11.10;;
11665;SDS011;5889;51.350;6.708;2024-01-15T08:57:51;15.00;;;10.40;;
11665;SDS011;5889;51.350;6.708;2024-01-15T09:00:17;15.47;;;10.03;;
11665;SDS011;5889;51.350;6.708;2024-01-15T09:02:45;14.60;;;10.50;;
11665;SDS011;5889;51.350;6.708;2024-01-15T09:05:12;14.23;;;8.73;;
11665;SDS011;5889;51.350;6.708;2024-01-15T09:07:40;13.83;;;10.27;;
11665;SDS011;5889;51.350;6.708;2024-01-15T09:10:10;12.47;;;8.77;;
11665;SDS011;5889;51.350;6.708;2024-01-15T09:12:37;12.97;;;9.40;;
11665;SDS011;5889;51.350;6.708;2024-01-15T09:15:05;15.20;;;9.63;;
11665;SDS011;5889;51.350;6.708;2024-01-15T09:17:33;17.10;;;9.63;;
11665;SDS011;5889;51.350;6.708;2024-01-15T09:20:00;13.87;;;9.37;;
11665;SDS011;5889;51.350;6.708;2024-01-15T09:22:29;14.27;;;8.90;;
11665;SDS011;5889;51.350;6.708;2024-01-15T09:24:57;14.13;;;9.60;;
11665;SDS011;5889;51.350;6.708;2024-01-15T09:27:24;15.43;;;9.40;;
11665;SDS011;5889;51.350;6.708;2024-01-15T09:29:52;13.10;;;8.63;;
11665;SDS011;5889;51.350;6.708;2024-01-15T09:32:19;16.20;;;9.00;;
11665;SDS011;5889;51.350;6.708;2024-01-15T09:34:46;13.27;;;9.73;;
11665;SDS011;5889;51.350;6.708;2024-01-15T09:37:13;12.13;;;7.60;;
11665;SDS011;5889;51.350;6.708;2024-01-15T09:39:40;10.40;;;7.50;;
11665;SDS011;5889;51.350;6.708;2024-01-15T09:42:09;12.30;;;7.27;;
11665;SDS011;5889;51.350;6.708;2024-01-15T09:44:37;10.60;;;7.10;;
11665;SDS011;5889;51.350;6.708;2024-01-15T09:47:04;12.70;;;7.80;;
11665;SDS011;5889;51.350;6.708;2024-01-15T09:49:32;9.50;;;6.93;;
11665;SDS011;5889;51.350;6.708;2024-01-15T09:51:59;12.13;;;7.73;;
11665;SDS011;5889;51.350;6.708;2024-01-15T09:54:28;12.67;;;7.33;;
11665;SDS011;5889;51.350;6.708;2024-01-15T09:56:55;11.17;;;8.13;;
11665;SDS011;5889;51.350;6.708;2024-01-15T09:59:23;11.17;;;7.47;;
11665;SDS011;5889;51.350;6.708;2024-01-15T10:01:52;12.87;;;7.23;;
11665;SDS011;5889;51.350;6.708;2024-01-15T10:04:20;10.93;;;7.73;;
11665;SDS011;5889;51.350;6.708;2024-01-15T10:06:49;11.17;;;7.27;;
11665;SDS011;5889;51.350;6.708;2024-01-15T10:09:17;11.10;;;7.03;;
11665;SDS011;5889;51.350;6.708;2024-01-15T10:11:44;11.07;;;7.77;;
11665;SDS011;5889;51.350;6.708;2024-01-15T10:14:12;12.93;;;7.30;;
11665;SDS011;5889;51.350;6.708;2024-01-15T10:16:40;10.60;;;7.67;;
11665;SDS011;5889;51.350;6.708;2024-01-15T10:19:07;13.37;;;7.90;;
11665;SDS011;5889;51.350;6.708;2024-01-15T10:21:35;10.07;;;6.83;;
11665;SDS011;5889;51.350;6.708;2024-01-15T10:24:03;10.83;;;6.93;;
11665;SDS011;5889;51.350;6.708;2024-01-15T10:26:31;11.10;;;7.33;;
11665;SDS011;5889;51.350;6.708;2024-01-15T10:28:58;10.97;;;8.03;;
11665;SDS011;5889;51.350;6.708;2024-01-15T10:31:26;10.87;;;7.30;;
11665;SDS011;5889;51.350;6.708;2024-01-15T10:33:55;10.67;;;7.27;;
11665;SDS011;5889;51.350;6.708;2024-01-15T10:36:46;11.37;;;6.87;;
11665;SDS011;5889;51.350;6.708;2024-01-15T10:39:17;11.37;;;7.20;;
11665;SDS011;5889;51.350;6.708;2024-01-15T10:41:44;11.23;;;7.77;;
11665;SDS011;5889;51.350;6.708;2024-01-15T10:44:11;10.87;;;6.90;;
11665;SDS011;5889;51.350;6.708;2024-01-15T10:46:38;10.33;;;6.37;;
11665;SDS011;5889;51.350;6.708;2024-01-15T10:49:06;11.83;;;6.53;;
11665;SDS011;5889;51.350;6.708;2024-01-15T10:51:33;10.03;;;6.43;;
11665;SDS011;5889;51.350;6.708;2024-01-15T10:54:02;11.57;;;6.53;;
11665;SDS011;5889;51.350;6.708;2024-01-15T10:56:30;10.20;;;6.20;;
11665;SDS011;5889;51.350;6.708;2024-01-15T10:58:58;8.27;;;6.37;;
11665;SDS011;5889;51.350;6.708;2024-01-15T11:01:25;9.00;;;6.50;;
11665;SDS011;5889;51.350;6.708;2024-01-15T11:03:53;9.30;;;5.80;;
11665;SDS011;5889;51.350;6.708;2024-01-15T11:06:24;9.67;;;6.47;;
11665;SDS011;5889;51.350;6.708;2024-01-15T11:08:54;9.77;;;6.00;;
11665;SDS011;5889;51.350;6.708;2024-01-15T11:11:21;9.60;;;5.90;;
11665;SDS011;5889;51.350;6.708;2024-01-15T11:13:48;8.07;;;5.20;;
11665;SDS011;5889;51.350;6.708;2024-01-15T11:16:16;8.63;;;5.40;;
11665;SDS011;5889;51.350;6.708;2024-01-15T11:19:01;11.50;;;5.57;;
11665;SDS011;5889;51.350;6.708;2024-01-15T11:21:32;6.50;;;4.97;;
11665;SDS011;5889;51.350;6.708;2024-01-15T11:24:07;8.73;;;4.43;;
11665;SDS011;5889;51.350;6.708;2024-01-15T11:26:37;7.57;;;4.87;;
11665;SDS011;5889;51.350;6.708;2024-01-15T11:29:10;7.00;;;4.13;;
11665;SDS011;5889;51.350;6.708;2024-01-15T11:32:04;10.50;;;4.20;;
11665;SDS011;5889;51.350;6.708;2024-01-15T11:34:51;5.73;;;3.47;;
11665;SDS011;5889;51.350;6.708;2024-01-15T11:37:20;6.93;;;3.60;;
11665;SDS011;5889;51.350;6.708;2024-01-15T11:39:49;8.47;;;3.70;;
11665;SDS011;5889;51.350;6.708;2024-01-15T11:42:18;7.63;;;3.60;;
11665;SDS011;5889;51.350;6.708;2024-01-15T11:44:46;5.50;;;3.40;;
11665;SDS011;5889;51.350;6.708;2024-01-15T11:47:14;7.30;;;3.50;;
11665;SDS011;5889;51.350;6.708;2024-01-15T11:49:56;5.87;;;3.00;;
11665;SDS011;5889;51.350;6.708;2024-01-15T11:52:30;4.70;;;3.10;;
11665;SDS011;5889;51.350;6.708;2024-01-15T11:55:00;6.23;;;2.90;;
11665;SDS011;5889;51.350;6.708;2024-01-15T11:57:37;6.27;;;2.80;;
11665;SDS011;5889;51.350;6.708;2024-01-15T12:00:08;7.10;;;2.87;;
11665;SDS011;5889;51.350;6.708;2024-01-15T12:02:37;5.40;;;2.97;;
11665;SDS011;5889;51.350;6.708;2024-01-15T12:05:04;6.27;;;3.47;;
11665;SDS011;5889;51.350;6.708;2024-01-15T12:07:34;13.03;;;3.60;;
11665;SDS011;5889;51.350;6.708;2024-01-15T12:10:01;3.40;;;2.77;;
11665;SDS011;5889;51.350;6.708;2024-01-15T12:12:33;8.03;;;3.47;;
11665;SDS011;5889;51.350;6.708;2024-01-15T12:15:23;6.67;;;3.30;;
11665;SDS011;5889;51.350;6.708;2024-01-15T12:17:51;8.83;;;3.37;;
11665;SDS011;5889;51.350;6.708;2024-01-15T12:20:18;5.70;;;3.27;;
11665;SDS011;5889;51.350;6.708;2024-01-15T12:22:46;9.10;;;3.27;;
11665;SDS011;5889;51.350;6.708;2024-01-15T12:25:13;4.70;;;3.20;;
11665;SDS011;5889;51.350;6.708;2024-01-15T12:27:40;7.80;;;3.13;;
11665;SDS011;5889;51.350;6.708;2024-01-15T12:30:10;5.30;;;3.07;;
11665;SDS011;5889;51.350;6.708;2024-01-15T12:32:37;7.73;;;3.90;;
11665;SDS011;5889;51.350;6.708;2024-01-15T12:35:06;6.07;;;3.47;;
11665;SDS011;5889;51.350;6.708;2024-01-15T12:37:35;7.10;;;4.00;;
11665;SDS011;5889;51.350;6.708;2024-01-15T12:40:04;9.03;;;4.03;;
11665;SDS011;5889;51.350;6.708;2024-01-15T12:42:32;4.87;;;4.17;;
11665;SDS011;5889;51.350;6.708;2024-01-15T12:44:59;7.33;;;4.60;;
11665;SDS011;5889;51.350;6.708;2024-01-15T12:47:27;11.83;;;4.60;;
11665;SDS011;5889;51.350;6.708;2024-01-15T12:49:54;9.37;;;4.50;;
11665;SDS011;5889;51.350;6.708;2024-01-15T12:52:21;8.37;;;4.40;;
11665;SDS011;5889;51.350;6.708;2024-01-15T12:54:48;5.10;;;4.50;;
11665;SDS011;5889;51.350;6.708;2024-01-15T12:57:17;11.70;;;4.40;;
11665;SDS011;5889;51.350;6.708;2024-01-15T12:59:44;6.97;;;5.40;;
11665;SDS011;5889;51.350;6.708;2024-01-15T13:02:12;9.47;;;4.80;;
11665;SDS011;5889;51.350;6.708;2024-01-15T13:04:39;10.10;;;4.83;;
11665;SDS011;5889;51.350;6.708;2024-01-15T13:07:07;9.23;;;5.00;;
11665;SDS011;5889;51.350;6.708;2024-01-15T13:09:34;8.83;;;5.23;;
11665;SDS011;5889;51.350;6.708;2024-01-15T13:12:01;7.60;;;4.50;;
11665;SDS011;5889;51.350;6.708;2024-01-15T13:14:30;10.20;;;5.23;;
11665;SDS011;5889;51.350;6.708;2024-01-15T13:16:57;8.63;;;4.70;;
11665;SDS011;5889;51.350;6.708;2024-01-15T13:19:25;7.57;;;5.40;;
11665;SDS011;5889;51.350;6.708;2024-01-15T13:21:52;6.80;;;5.77;;
11665;SDS011;5889;51.350;6.708;2024-01-15T13:24:20;6.03;;;4.90;;
11665;SDS011;5889;51.350;6.708;2024-01-15T13:26:47;9.97;;;5.60;;
11665;SDS011;5889;51.350;6.708;2024-01-15T13:29:14;8.47;;;4.80;;
11665;SDS011;5889;51.350;6.708;2024-01-15T13:31:42;7.57;;;4.83;;
11665;SDS011;5889;51.350;6.708;2024-01-15T13:34:11;5.93;;;4.67;;
11665;SDS011;5889;51.350;6.708;2024-01-15T13:36:39;6.77;;;4.63;;
11665;SDS011;5889;51.350;6.708;2024-01-15T13:39:06;5.80;;;4.30;;
11665;SDS011;5889;51.350;6.708;2024-01-15T13:41:34;6.57;;;4.17;;
11665;SDS011;5889;51.350;6.708;2024-01-15T13:44:01;5.97;;;3.90;;
11665;SDS011;5889;51.350;6.708;2024-01-15T13:46:28;4.97;;;3.40;;
11665;SDS011;5889;51.350;6.708;2024-01-15T13:48:57;7.73;;;3.90;;
11665;SDS011;5889;51.350;6.708;2024-01-15T13:51:24;5.03;;;3.23;;
11665;SDS011;5889;51.350;6.708;2024-01-15T13:53:51;5.63;;;3.67;;
11665;SDS011;5889;51.350;6.708;2024-01-15T13:56:18;5.23;;;3.57;;
11665;SDS011;5889;51.350;6.708;2024-01-15T13:58:45;4.10;;;3.23;;
11665;SDS011;5889;51.350;6.708;2024-01-15T14:01:14;6.70;;;3.03;;
11665;SDS011;5889;51.350;6.708;2024-01-15T14:03:42;5.10;;;2.47;;
11665;SDS011;5889;51.350;6.708;2024-01-15T14:06:11;6.57;;;2.90;;
11665;SDS011;5889;51.350;6.708;2024-01-15T14:08:37;4.37;;;2.70;;
11665;SDS011;5889;51.350;6.708;2024-01-15T14:11:04;4.23;;;2.63;;
11665;SDS011;5889;51.350;6.708;2024-01-15T14:13:32;4.03;;;2.50;;
11665;SDS011;5889;51.350;6.708;2024-01-15T14:15:59;5.10;;;2.80;;
11665;SDS011;5889;51.350;6.708;2024-01-15T14:18:26;4.60;;;2.70;;
11665;SDS011;5889;51.350;6.708;2024-01-15T14:20:53;4.23;;;2.60;;
11665;SDS011;5889;51.350;6.708;2024-01-15T14:23:21;2.67;;;2.40;;
11665;SDS011;5889;51.350;6.708;2024-01-15T14:25:48;4.17;;;2.43;;
11665;SDS011;5889;51.350;6.708;2024-01-15T14:28:15;3.93;;;2.40;;
11665;SDS011;5889;51.350;6.708;2024-01-15T14:30:42;5.20;;;2.67;;
11665;SDS011;5889;51.350;6.708;2024-01-15T14:33:09;4.67;;;2.77;;
11665;SDS011;5889;51.350;6.708;2024-01-15T14:35:36;3.13;;;2.83;;
11665;SDS011;5889;51.350;6.708;2024-01-15T14:38:04;3.10;;;2.80;;
11665;SDS011;5889;51.350;6.708;2024-01-15T14:40:34;6.27;;;2.53;;
11665;SDS011;5889;51.350;6.708;2024-01-15T14:43:02;4.00;;;2.70;;
11665;SDS011;5889;51.350;6.708;2024-01-15T14:45:29;3.30;;;2.90;;
11665;SDS011;5889;51.350;6.708;2024-01-15T14:47:56;7.13;;;3.13;;
11665;SDS011;5889;51.350;6.708;2024-01-15T14:50:23;4.07;;;2.80;;
11665;SDS011;5889;51.350;6.708;2024-01-15T14:52:51;4.57;;;3.53;;
11665;SDS011;5889;51.350;6.708;2024-01-15T14:55:18;7.20;;;3.07;;
11665;SDS011;5889;51.350;6.708;2024-01-15T14:57:48;4.03;;;3.00;;